Time;durP1;ratioP1;P1;durP2;ratioP2;P2;SDS_P1;SDS_P2;PMS_P1;PMS_P2;Temp;Humidity;BMP_temperature;BMP_pressure;BME280_temperature;BME280_humidity;BME280_pressure;Samples;Min_cycle;Max_cycle;Signal;HPM_P1;HPM_P2
2022/01/16 00:06:13;;;;;;;;;66.50;52.50;22.70;99.90;;;;;;5038026;28;8768;-71
2022/01/16 00:08:40;;;;;;;;;67.50;54.75;22.60;99.90;;;;;;5037496;28;8764;-71
2022/01/16 00:11:07;;;;;;;;;66.75;52.50;22.50;99.90;;;;;;5038002;28;8760;-72
2022/01/16 00:13:34;;;;;;;;;64.50;50.50;22.50;99.90;;;;;;5037681;28;8771;-71
2022/01/16 00:16:01;;;;;;;;;65.25;50.50;22.50;99.90;;;;;;5038438;28;8764;-71
2022/01/16 00:18:39;;;;;;;;;58.50;49.50;22.20;99.90;;;;;;5037678;28;9459;-71
2022/01/16 00:21:06;;;;;;;;;52.25;43.00;22.20;99.90;;;;;;5056909;28;8769;-72
2022/01/16 00:23:33;;;;;;;;;50.50;40.75;22.00;99.90;;;;;;5057441;28;8779;-71
2022/01/16 00:26:00;;;;;;;;;46.25;38.50;22.00;99.90;;;;;;5057533;28;8782;-71
2022/01/16 00:28:26;;;;;;;;;49.75;41.00;22.00;99.90;;;;;;5056046;28;8738;-71
2022/01/16 00:30:53;;;;;;;;;49.75;41.50;22.00;99.90;;;;;;5057968;28;8741;-71
2022/01/16 00:33:20;;;;;;;;;45.25;36.50;22.00;99.90;;;;;;5056700;28;8773;-71
2022/01/16 00:35:47;;;;;;;;;45.25;37.50;22.00;99.90;;;;;;5057437;28;8872;-71
2022/01/16 00:38:13;;;;;;;;;49.00;36.25;21.90;99.90;;;;;;5056166;28;8765;-71
2022/01/16 00:40:41;;;;;;;;;42.50;37.50;22.00;99.90;;;;;;5055197;28;8738;-71
2022/01/16 00:43:08;;;;;;;;;49.25;38.75;21.90;99.90;;;;;;5057969;28;8734;-73
2022/01/16 00:45:35;;;;;;;;;45.75;38.25;21.80;99.90;;;;;;5057520;28;8748;-71
2022/01/16 00:48:02;;;;;;;;;42.00;35.50;21.90;99.90;;;;;;5057617;28;8723;-72
2022/01/16 00:50:30;;;;;;;;;50.75;39.25;21.90;99.90;;;;;;5056446;28;8769;-71
2022/01/16 00:52:57;;;;;;;;;45.00;38.00;21.80;99.90;;;;;;5057250;28;9831;-71
2022/01/16 00:55:23;;;;;;;;;35.75;33.00;21.70;99.90;;;;;;5057443;28;8758;-72
2022/01/16 00:57:50;;;;;;;;;36.75;32.50;21.60;99.90;;;;;;5057695;28;8745;-71
2022/01/16 01:00:17;;;;;;;;;28.50;24.50;21.60;99.90;;;;;;5056825;28;8750;-72
2022/01/16 01:02:44;;;;;;;;;35.50;29.50;21.60;99.90;;;;;;5055510;28;8750;-72
2022/01/16 01:05:11;;;;;;;;;27.25;24.25;21.80;99.90;;;;;;5057004;28;9090;-72
2022/01/16 01:07:40;;;;;;;;;25.25;24.00;21.80;99.90;;;;;;5056945;28;8761;-71
2022/01/16 01:10:08;;;;;;;;;24.60;23.20;21.70;99.90;;;;;;5057275;28;8781;-72
2022/01/16 01:12:53;;;;;;;;;32.75;28.00;21.70;99.90;;;;;;5055402;28;8769;-72
2022/01/16 01:15:30;;;;;;;;;25.25;21.50;21.70;99.90;;;;;;5056469;28;8738;-70
2022/01/16 01:17:56;;;;;;;;;24.60;22.20;21.70;99.90;;;;;;5056679;28;8780;-71
2022/01/16 01:20:25;;;;;;;;;29.25;28.00;21.70;99.90;;;;;;5071268;28;8761;-72
2022/01/16 01:22:52;;;;;;;;;35.50;30.75;21.70;99.90;;;;;;5054804;28;8765;-71
2022/01/16 01:25:19;;;;;;;;;19.25;18.00;21.80;99.90;;;;;;5055721;28;8730;-70
2022/01/16 01:27:46;;;;;;;;;25.20;23.20;21.80;99.90;;;;;;5055415;28;8861;-72
2022/01/16 01:30:15;;;;;;;;;24.60;21.40;21.90;99.90;;;;;;5056485;28;8766;-71
2022/01/16 01:32:42;;;;;;;;;26.50;22.25;21.90;99.90;;;;;;5056298;28;8768;-71
2022/01/16 01:35:11;;;;;;;;;24.20;21.40;21.90;99.90;;;;;;5056275;28;8738;-69
2022/01/16 01:37:37;;;;;;;;;17.00;16.60;21.90;99.90;;;;;;5071883;28;8730;-70
2022/01/16 01:40:05;;;;;;;;;30.40;29.80;22.00;99.90;;;;;;5056227;28;8780;-70
2022/01/16 01:42:35;;;;;;;;;35.40;30.80;22.10;99.90;;;;;;5054781;28;8764;-69
2022/01/16 01:51:04;;;;;;;;;33.00;25.75;22.20;99.90;;;;;;4998927;28;8804;-69
2022/01/16 01:53:35;;;;;;;;;30.75;27.00;22.30;99.90;;;;;;4998540;28;8745;-69
2022/01/16 01:56:02;;;;;;;;;34.75;30.75;22.30;99.90;;;;;;5023023;28;8874;-70
2022/01/16 01:58:29;;;;;;;;;31.00;27.50;22.50;99.90;;;;;;5038947;28;8740;-69
2022/01/16 02:00:56;;;;;;;;;28.50;26.00;22.50;99.90;;;;;;5040902;28;8784;-69
2022/01/16 02:06:31;;;;;;;;;29.25;28.75;22.50;99.90;;;;;;5006597;28;8761;-69
2022/01/16 02:09:03;;;;;;;;;24.75;23.50;22.40;99.90;;;;;;5038860;28;8800;-69
2022/01/16 02:11:31;;;;;;;;;31.50;30.75;22.40;99.90;;;;;;5039829;28;8772;-70
2022/01/16 02:35:42;;;;;;;;;34.25;30.25;23.00;99.90;;;;;;5059765;28;8852;-70
2022/01/16 02:38:12;;;;;;;;;37.25;32.75;22.90;99.90;;;;;;5059898;28;8750;-70
2022/01/16 02:40:47;;;;;;;;;30.40;29.00;22.90;99.90;;;;;;5059399;28;8757;-69
2022/01/16 02:43:17;;;;;;;;;35.50;32.25;23.00;99.90;;;;;;5060075;28;8777;-70
2022/01/16 02:45:48;;;;;;;;;36.60;33.00;23.00;99.90;;;;;;5059357;28;8812;-71
2022/01/16 02:48:15;;;;;;;;;36.00;33.50;23.10;99.90;;;;;;5058504;28;8758;-71
2022/01/16 02:50:41;;;;;;;;;35.25;32.00;23.10;99.90;;;;;;5048424;28;8779;-70
2022/01/16 02:53:12;;;;;;;;;39.50;34.00;23.20;99.90;;;;;;5052361;28;8834;-72
2022/01/16 02:55:44;;;;;;;;;34.00;31.25;23.40;99.90;;;;;;5057598;28;8761;-71
2022/01/16 02:58:10;;;;;;;;;32.50;30.25;23.40;99.90;;;;;;5042138;28;8839;-71
2022/01/16 03:00:37;;;;;;;;;33.75;32.00;23.30;99.90;;;;;;5058743;28;8839;-70
2022/01/16 03:03:04;;;;;;;;;36.67;32.67;23.30;99.90;;;;;;5059056;28;8866;-71
2022/01/16 03:05:33;;;;;;;;;32.00;24.75;23.30;99.90;;;;;;5058965;28;8774;-72
2022/01/16 03:07:59;;;;;;;;;29.50;26.50;23.20;99.90;;;;;;5058049;28;8812;-70
2022/01/16 03:12:58;;;;;;;;;34.75;29.75;23.40;99.90;;;;;;5059608;28;8876;-70
2022/01/16 03:15:25;;;;;;;;;28.25;24.75;23.60;99.90;;;;;;5059123;28;8781;-71
2022/01/16 03:21:53;;;;;;;;;32.25;30.00;23.70;99.90;;;;;;5059049;28;8754;-71
2022/01/16 03:23:27;;;;;;;;;32.20;30.20;23.70;99.90;;;;;;5058992;28;8754;-70
2022/01/16 03:25:54;;;;;;;;;32.00;28.20;23.80;99.90;;;;;;5058912;28;8776;-71
2022/01/16 03:28:21;;;;;;;;;32.60;27.80;23.70;99.90;;;;;;5059041;28;8750;-70
2022/01/16 03:30:48;;;;;;;;;26.00;25.60;23.70;99.90;;;;;;5058951;28;8738;-70
2022/01/16 03:33:15;;;;;;;;;28.20;26.80;23.70;99.90;;;;;;5058875;28;8864;-71
2022/01/16 03:35:42;;;;;;;;;25.60;22.40;23.60;99.90;;;;;;5058361;28;8780;-71
2022/01/16 03:38:09;;;;;;;;;25.25;24.50;23.80;99.90;;;;;;5058821;28;8754;-72
2022/01/16 03:40:36;;;;;;;;;27.60;24.20;24.10;99.90;;;;;;5073646;28;8738;-70
2022/01/16 03:43:15;;;;;;;;;25.75;24.00;24.20;99.90;;;;;;5059057;28;8742;-71
2022/01/16 03:45:45;;;;;;;;;28.50;27.25;24.30;99.90;;;;;;5058213;28;8754;-71
2022/01/16 03:48:13;;;;;;;;;27.80;23.40;24.30;99.90;;;;;;5058284;28;8758;-70
2022/01/16 03:50:40;;;;;;;;;23.75;22.25;24.60;99.90;;;;;;5057974;28;8769;-71
2022/01/16 03:53:09;;;;;;;;;31.25;24.25;24.50;99.90;;;;;;5058671;28;8745;-70
2022/01/16 03:55:36;;;;;;;;;26.75;25.75;24.40;99.90;;;;;;5056651;28;8741;-71
2022/01/16 03:58:06;;;;;;;;;24.75;21.00;24.50;99.90;;;;;;5057639;28;8738;-71
2022/01/16 04:00:33;;;;;;;;;20.00;18.75;24.50;99.90;;;;;;5058160;28;8754;-71
2022/01/16 04:02:59;;;;;;;;;19.40;18.80;24.40;99.90;;;;;;5058185;28;8786;-72
2022/01/16 04:05:26;;;;;;;;;24.50;22.00;24.40;99.90;;;;;;5056592;28;8805;-70
2022/01/16 04:07:53;;;;;;;;;21.60;19.60;24.30;99.90;;;;;;5056761;28;8746;-70
2022/01/16 04:10:21;;;;;;;;;17.20;16.40;24.30;99.90;;;;;;5057713;28;8789;-70
2022/01/16 04:12:48;;;;;;;;;23.40;19.40;24.30;99.90;;;;;;5057920;28;8749;-70
2022/01/16 04:17:44;;;;;;;;;17.60;17.60;24.40;99.90;;;;;;5057827;28;8784;-69
2022/01/16 04:20:15;;;;;;;;;19.60;17.80;24.50;99.90;;;;;;5057676;28;8754;-71
2022/01/16 04:22:45;;;;;;;;;18.60;18.60;24.60;99.90;;;;;;5057380;28;8780;-70
2022/01/16 04:25:12;;;;;;;;;19.80;19.40;24.50;99.90;;;;;;5073584;28;9382;-70
2022/01/16 04:27:39;;;;;;;;;19.20;18.40;24.60;99.90;;;;;;5072880;28;8848;-70
2022/01/16 04:30:06;;;;;;;;;17.60;16.20;24.90;99.90;;;;;;5057695;28;8831;-70
2022/01/16 04:32:33;;;;;;;;;20.00;18.00;24.70;99.90;;;;;;5057367;28;8843;-70
2022/01/16 04:35:00;;;;;;;;;19.40;16.80;24.60;99.90;;;;;;5057566;28;8774;-70
2022/01/16 04:37:26;;;;;;;;;15.80;15.80;24.60;99.90;;;;;;5057784;28;8764;-69
2022/01/16 04:39:59;;;;;;;;;15.60;15.20;24.60;99.90;;;;;;5058434;28;8737;-70
2022/01/16 04:45:11;;;;;;;;;19.40;17.00;24.90;99.90;;;;;;5057698;28;9387;-70
2022/01/16 04:47:38;;;;;;;;;16.20;15.60;25.00;99.90;;;;;;5057415;28;8792;-69
2022/01/16 04:50:05;;;;;;;;;17.20;16.00;25.10;99.90;;;;;;5055717;28;8777;-70
2022/01/16 04:52:32;;;;;;;;;17.40;16.60;25.40;99.90;;;;;;5055668;28;8738;-70
2022/01/16 04:54:58;;;;;;;;;15.60;13.80;25.10;99.90;;;;;;5056595;28;8824;-70
2022/01/16 04:57:25;;;;;;;;;17.60;16.20;24.90;99.90;;;;;;5057149;28;8742;-70
2022/01/16 04:59:52;;;;;;;;;19.00;16.00;25.00;99.90;;;;;;5057272;28;8758;-70
2022/01/16 05:02:21;;;;;;;;;17.60;16.20;25.10;99.90;;;;;;5056919;28;8829;-68
2022/01/16 05:04:48;;;;;;;;;12.40;12.00;25.10;99.90;;;;;;5057029;28;8742;-70
2022/01/16 05:07:14;;;;;;;;;14.20;9.40;25.00;99.90;;;;;;5057705;28;8722;-70
2022/01/16 05:09:41;;;;;;;;;15.20;13.40;25.10;99.90;;;;;;5056607;28;8831;-70
2022/01/16 05:12:12;;;;;;;;;16.40;16.40;25.10;99.90;;;;;;5057152;28;8738;-70
2022/01/16 05:17:24;;;;;;;;;16.00;14.00;25.10;99.90;;;;;;5055296;28;8766;-70
2022/01/16 05:19:51;;;;;;;;;17.60;14.20;25.00;99.90;;;;;;5056210;28;8773;-70
2022/01/16 05:22:17;;;;;;;;;14.80;14.20;25.00;99.90;;;;;;5057087;28;8780;-70
2022/01/16 05:24:46;;;;;;;;;16.60;15.60;25.00;99.90;;;;;;5056886;28;8807;-70
2022/01/16 05:27:13;;;;;;;;;19.80;17.80;25.00;99.90;;;;;;5056815;28;8742;-70
2022/01/16 05:29:39;;;;;;;;;15.40;14.80;25.00;99.90;;;;;;5038910;28;8766;-70
2022/01/16 05:32:06;;;;;;;;;19.40;17.00;25.20;99.90;;;;;;5056463;28;9473;-70
2022/01/16 05:34:33;;;;;;;;;18.40;16.80;25.40;99.90;;;;;;5056406;28;8920;-70
2022/01/16 05:37:00;;;;;;;;;14.60;14.60;25.40;99.90;;;;;;5057184;28;8765;-71
2022/01/16 05:39:27;;;;;;;;;17.20;15.40;25.50;99.90;;;;;;5071792;28;8750;-70
2022/01/16 05:41:53;;;;;;;;;20.20;15.60;25.50;99.90;;;;;;5056352;28;8811;-70
2022/01/16 05:44:20;;;;;;;;;21.60;19.60;25.40;99.90;;;;;;5056045;28;8773;-70
2022/01/16 05:46:47;;;;;;;;;17.00;15.00;25.40;99.90;;;;;;5055250;28;8742;-70
2022/01/16 05:49:14;;;;;;;;;18.40;18.00;25.40;99.90;;;;;;5056911;28;8773;-70
2022/01/16 05:51:40;;;;;;;;;13.00;13.00;25.40;99.90;;;;;;5056374;28;8819;-72
2022/01/16 05:54:07;;;;;;;;;17.00;15.20;25.40;99.90;;;;;;5056450;28;9211;-70
2022/01/16 05:56:34;;;;;;;;;16.80;14.80;25.40;99.90;;;;;;5054757;28;8782;-70
2022/01/16 05:59:01;;;;;;;;;16.00;16.00;25.30;99.90;;;;;;5056465;28;8820;-70
2022/01/16 06:01:27;;;;;;;;;17.60;15.20;25.30;99.90;;;;;;5056275;28;8754;-70
2022/01/16 06:03:54;;;;;;;;;18.60;16.40;25.40;99.90;;;;;;5056859;28;8815;-70
2022/01/16 06:06:21;;;;;;;;;18.75;18.00;25.40;99.90;;;;;;5056018;28;8843;-69
2022/01/16 06:08:50;;;;;;;;;17.40;15.80;25.50;99.90;;;;;;5056085;28;8781;-69
2022/01/16 06:11:17;;;;;;;;;19.20;18.20;25.50;99.90;;;;;;5056121;28;8965;-69
2022/01/16 06:13:44;;;;;;;;;15.50;15.50;25.70;99.90;;;;;;5056480;28;8861;-70
2022/01/16 06:16:10;;;;;;;;;19.25;17.25;25.90;99.90;;;;;;5056068;28;8819;-69
2022/01/16 06:18:37;;;;;;;;;18.25;16.50;25.90;99.90;;;;;;5056015;28;8789;-70
2022/01/16 06:21:04;;;;;;;;;21.00;18.25;25.70;99.90;;;;;;5056558;28;8799;-70
2022/01/16 06:23:31;;;;;;;;;20.20;18.20;25.60;99.90;;;;;;5055977;28;8769;-70
2022/01/16 06:25:58;;;;;;;;;22.25;20.50;25.70;99.90;;;;;;5056595;28;8781;-70
2022/01/16 06:28:25;;;;;;;;;23.50;20.00;25.80;99.90;;;;;;5056258;28;8773;-71
2022/01/16 06:30:52;;;;;;;;;19.50;17.00;25.90;99.90;;;;;;5056547;28;8746;-70
2022/01/16 06:33:18;;;;;;;;;22.00;19.60;26.00;99.90;;;;;;5057655;28;8754;-69
2022/01/16 06:35:45;;;;;;;;;21.50;19.50;26.20;99.90;;;;;;5032501;28;8784;-70
2022/01/16 06:38:12;;;;;;;;;21.75;21.25;26.20;99.90;;;;;;5039650;28;8772;-70
2022/01/16 06:40:39;;;;;;;;;18.50;17.25;26.10;99.90;;;;;;5038320;28;8764;-71
2022/01/16 06:43:05;;;;;;;;;21.60;18.80;26.10;99.90;;;;;;5039939;28;8753;-71
2022/01/16 06:45:32;;;;;;;;;22.80;22.80;26.20;99.90;;;;;;5039457;28;8830;-70
2022/01/16 06:47:59;;;;;;;;;26.25;21.25;26.20;99.90;;;;;;5039742;28;8768;-70
2022/01/16 06:50:25;;;;;;;;;18.25;15.25;26.30;99.90;;;;;;5052668;28;8762;-69
2022/01/16 06:52:52;;;;;;;;;23.50;20.75;26.20;99.90;;;;;;5050721;28;8869;-70
2022/01/16 06:55:19;;;;;;;;;25.00;22.60;26.20;99.90;;;;;;5060119;28;8772;-70
2022/01/16 06:57:45;;;;;;;;;22.00;22.00;26.30;99.90;;;;;;5060254;28;8750;-70
2022/01/16 07:00:12;;;;;;;;;22.00;22.00;26.30;99.90;;;;;;5059683;28;8753;-70
2022/01/16 07:02:39;;;;;;;;;23.25;22.25;26.50;99.90;;;;;;5059796;28;8812;-71
2022/01/16 07:05:06;;;;;;;;;31.25;26.50;26.50;99.90;;;;;;5058563;28;9434;-70
2022/01/16 07:07:33;;;;;;;;;32.50;27.25;26.50;99.90;;;;;;5059026;28;12240;-69
2022/01/16 07:10:00;;;;;;;;;22.00;19.75;26.50;99.90;;;;;;5074719;28;8846;-70
2022/01/16 07:12:27;;;;;;;;;22.00;20.50;26.60;99.90;;;;;;5058981;28;8819;-69
2022/01/16 07:14:53;;;;;;;;;23.00;21.00;26.60;99.90;;;;;;5059109;28;8853;-70
2022/01/16 07:17:20;;;;;;;;;29.25;26.25;26.70;99.90;;;;;;5058747;28;8892;-68
2022/01/16 07:19:47;;;;;;;;;26.50;25.25;26.60;99.90;;;;;;5059007;28;8761;-69
2022/01/16 07:22:13;;;;;;;;;24.00;21.00;26.70;99.90;;;;;;5058490;28;8734;-70
2022/01/16 07:24:40;;;;;;;;;18.00;18.00;26.70;99.90;;;;;;5059037;28;8801;-70
2022/01/16 07:27:07;;;;;;;;;19.50;15.00;26.80;99.90;;;;;;5058868;28;8741;-70
2022/01/16 07:29:34;;;;;;;;;21.25;20.00;26.90;99.90;;;;;;5058787;28;8752;-70
2022/01/16 07:32:00;;;;;;;;;25.50;23.50;26.80;99.90;;;;;;5058730;28;8808;-70
2022/01/16 07:34:27;;;;;;;;;29.00;25.25;26.60;99.90;;;;;;5058463;28;8844;-69
2022/01/16 07:36:54;;;;;;;;;23.60;21.80;26.50;99.90;;;;;;5057920;28;8741;-70
2022/01/16 07:39:20;;;;;;;;;23.80;23.20;26.50;99.90;;;;;;5058731;28;8793;-69
2022/01/16 07:41:47;;;;;;;;;29.00;26.00;26.70;99.90;;;;;;5058578;28;8862;-71
2022/01/16 07:44:14;;;;;;;;;19.40;19.40;26.80;99.90;;;;;;5041014;28;8880;-69
2022/01/16 07:46:41;;;;;;;;;21.75;17.75;26.70;99.90;;;;;;5058330;28;8761;-69
2022/01/16 07:49:07;;;;;;;;;22.25;20.25;26.70;99.90;;;;;;5057708;28;8750;-69
2022/01/16 07:51:37;;;;;;;;;27.25;26.25;26.60;99.90;;;;;;5058132;28;8826;-69
2022/01/16 07:54:03;;;;;;;;;27.00;27.00;26.50;99.90;;;;;;5058365;28;9363;-70
2022/01/16 07:56:30;;;;;;;;;27.75;25.25;26.50;99.90;;;;;;5056996;28;8777;-72
2022/01/16 07:58:57;;;;;;;;;27.75;22.50;26.50;99.90;;;;;;5057360;28;8858;-70
2022/01/16 08:01:24;;;;;;;;;26.25;25.25;26.60;99.90;;;;;;5058348;28;8834;-69
2022/01/16 08:03:50;;;;;;;;;23.25;22.75;26.70;99.90;;;;;;5058361;28;8770;-69
2022/01/16 08:06:17;;;;;;;;;28.75;27.00;26.60;99.90;;;;;;5058243;28;8778;-68
2022/01/16 08:08:44;;;;;;;;;32.50;28.50;26.50;99.90;;;;;;5057723;28;8785;-70
2022/01/16 08:11:11;;;;;;;;;24.25;22.50;26.70;99.90;;;;;;5057774;28;8777;-70
2022/01/16 08:13:38;;;;;;;;;25.60;23.60;26.60;99.90;;;;;;5057650;28;10121;-70
2022/01/16 08:16:05;;;;;;;;;26.40;24.20;26.60;99.90;;;;;;5057350;28;8857;-70
2022/01/16 08:18:32;;;;;;;;;22.50;22.25;26.70;99.90;;;;;;5057809;28;8815;-69
2022/01/16 08:20:59;;;;;;;;;26.00;24.75;26.90;99.90;;;;;;5056491;28;8843;-71
2022/01/16 08:23:26;;;;;;;;;26.00;25.50;27.10;99.90;;;;;;5057671;28;8772;-69
2022/01/16 08:25:52;;;;;;;;;22.25;21.75;26.90;99.90;;;;;;5072955;28;8766;-70
2022/01/16 08:28:22;;;;;;;;;19.50;18.50;26.90;99.90;;;;;;5057989;28;9426;-69
2022/01/16 08:30:49;;;;;;;;;21.25;18.50;26.80;99.90;;;;;;5056530;28;8756;-70
2022/01/16 08:33:15;;;;;;;;;24.50;21.00;26.80;99.90;;;;;;5057882;28;8754;-70
2022/01/16 08:35:42;;;;;;;;;25.25;22.25;26.60;99.90;;;;;;5057516;28;8786;-69
2022/01/16 08:38:09;;;;;;;;;25.25;25.00;26.60;99.90;;;;;;5056710;28;8762;-70
2022/01/16 08:40:36;;;;;;;;;28.75;25.00;26.70;99.90;;;;;;5057409;28;8754;-69
2022/01/16 08:43:14;;;;;;;;;26.40;23.40;26.80;99.90;;;;;;5058006;28;9524;-70
2022/01/16 08:45:41;;;;;;;;;21.60;18.80;26.90;99.90;;;;;;5057322;28;9434;-70
2022/01/16 08:48:08;;;;;;;;;25.25;23.25;27.10;99.90;;;;;;5058805;28;8892;-70
2022/01/16 08:50:36;;;;;;;;;26.25;24.75;27.10;99.90;;;;;;5057271;28;8746;-69
2022/01/16 08:53:02;;;;;;;;;32.00;24.00;27.20;99.90;;;;;;5057329;28;8781;-69
2022/01/16 08:55:29;;;;;;;;;23.50;20.50;27.10;99.90;;;;;;5056560;28;8738;-68
2022/01/16 08:57:59;;;;;;;;;24.25;22.25;27.00;99.90;;;;;;5058644;28;8746;-70
2022/01/16 09:00:26;;;;;;;;;32.00;28.75;27.30;99.90;;;;;;5057416;28;8765;-69
2022/01/16 09:02:52;;;;;;;;;30.00;27.25;27.20;99.90;;;;;;5056870;28;8758;-69
2022/01/16 09:05:19;;;;;;;;;22.75;19.75;27.40;99.90;;;;;;5055901;28;8774;-68
2022/01/16 09:07:46;;;;;;;;;27.50;24.00;27.60;99.90;;;;;;5073091;28;8772;-70
2022/01/16 09:10:14;;;;;;;;;27.00;25.80;27.50;99.90;;;;;;5057366;28;8734;-69
2022/01/16 09:12:41;;;;;;;;;29.20;27.40;27.40;99.90;;;;;;5057437;28;8761;-70
2022/01/16 09:15:08;;;;;;;;;28.25;26.75;27.30;99.90;;;;;;5057803;28;8751;-69
2022/01/16 09:17:35;;;;;;;;;32.25;29.50;27.40;99.90;;;;;;5056382;28;8757;-69
2022/01/16 09:20:02;;;;;;;;;27.25;25.75;27.40;99.90;;;;;;5057668;28;9518;-70
2022/01/16 09:22:29;;;;;;;;;29.20;24.60;27.40;99.90;;;;;;5057075;28;8764;-69
2022/01/16 09:24:56;;;;;;;;;32.75;26.25;27.20;99.90;;;;;;5058237;28;8729;-69
2022/01/16 09:27:22;;;;;;;;;27.75;26.25;27.00;99.90;;;;;;5057186;28;8765;-69
2022/01/16 09:29:49;;;;;;;;;33.00;31.50;27.00;99.90;;;;;;5057279;28;8791;-69
2022/01/16 09:32:16;;;;;;;;;30.75;27.25;27.00;99.90;;;;;;5057163;28;8737;-69
2022/01/16 09:34:43;;;;;;;;;30.50;28.50;27.20;99.90;;;;;;5057086;28;8768;-69
2022/01/16 09:37:10;;;;;;;;;28.75;28.25;27.30;99.90;;;;;;5057543;28;9391;-70
2022/01/16 09:39:37;;;;;;;;;29.75;27.50;27.50;99.90;;;;;;5056749;28;8741;-70
2022/01/16 09:42:06;;;;;;;;;29.50;27.50;27.40;99.90;;;;;;5057003;28;8754;-69
2022/01/16 09:44:41;;;;;;;;;32.50;27.00;27.10;99.90;;;;;;5056696;28;8765;-69
2022/01/16 09:47:09;;;;;;;;;33.00;29.00;27.00;99.90;;;;;;5056887;28;9472;-69
2022/01/16 09:49:36;;;;;;;;;28.75;27.50;26.90;99.90;;;;;;5056621;28;9343;-69
2022/01/16 09:52:03;;;;;;;;;29.00;27.00;26.90;99.90;;;;;;5057625;28;8741;-69
2022/01/16 09:54:29;;;;;;;;;28.75;26.25;26.80;99.90;;;;;;5056424;28;8793;-69
2022/01/16 09:56:56;;;;;;;;;32.00;28.25;26.90;99.90;;;;;;5039283;28;8755;-70
2022/01/16 09:59:23;;;;;;;;;22.00;22.00;26.70;99.90;;;;;;5056456;28;9532;-69
2022/01/16 10:01:50;;;;;;;;;31.75;28.50;26.70;99.90;;;;;;5057009;28;8777;-69
2022/01/16 10:04:41;;;;;;;;;30.75;29.00;26.60;99.90;;;;;;5057249;28;8758;-68
2022/01/16 10:07:10;;;;;;;;;33.00;26.75;26.50;99.90;;;;;;5057862;28;8756;-69
2022/01/16 10:09:37;;;;;;;;;35.75;30.50;26.40;99.90;;;;;;5060544;28;8725;-70
2022/01/16 10:12:18;;;;;;;;;38.25;32.00;26.50;99.90;;;;;;5060634;28;8718;-70
2022/01/16 10:14:47;;;;;;;;;39.00;32.25;26.40;99.90;;;;;;5060766;28;9363;-70
2022/01/16 10:17:17;;;;;;;;;42.00;33.50;26.40;99.90;;;;;;5060619;28;8738;-70
2022/01/16 10:19:44;;;;;;;;;30.75;25.25;26.40;99.90;;;;;;5059956;28;8730;-70
2022/01/16 10:22:12;;;;;;;;;35.75;30.00;26.50;99.90;;;;;;5060462;28;8718;-70
2022/01/16 10:24:40;;;;;;;;;40.00;34.25;26.40;99.90;;;;;;5059229;28;8750;-70
2022/01/16 10:27:10;;;;;;;;;26.50;21.75;26.40;99.90;;;;;;5060897;28;8792;-70
2022/01/16 10:29:44;;;;;;;;;28.75;24.75;26.30;99.90;;;;;;5058598;28;8821;-69
2022/01/16 10:32:17;;;;;;;;;32.75;25.00;26.20;99.90;;;;;;5059322;28;8702;-71
2022/01/16 10:34:44;;;;;;;;;23.75;22.00;26.20;99.90;;;;;;5059706;28;8747;-70
2022/01/16 10:37:24;;;;;;;;;29.75;27.25;26.20;99.90;;;;;;5060639;28;8714;-70
2022/01/16 10:40:06;;;;;;;;;41.50;33.25;26.10;99.90;;;;;;5058529;28;8730;-70
2022/01/16 10:42:33;;;;;;;;;29.25;27.50;26.10;99.90;;;;;;5059660;28;8746;-71
2022/01/16 10:45:06;;;;;;;;;35.50;30.25;26.20;99.90;;;;;;5061979;28;8802;-71
2022/01/16 10:47:54;;;;;;;;;26.25;26.00;26.20;99.90;;;;;;5058339;28;8868;-70
2022/01/16 10:50:25;;;;;;;;;22.75;21.75;26.20;99.90;;;;;;5059519;28;8776;-70
2022/01/16 10:53:13;;;;;;;;;21.75;19.25;26.10;99.90;;;;;;5059925;28;8772;-70
2022/01/16 10:55:46;;;;;;;;;26.00;26.00;26.10;99.90;;;;;;5059320;28;8756;-70
2022/01/16 10:58:27;;;;;;;;;21.00;20.40;26.00;99.90;;;;;;5060178;28;8746;-70
2022/01/16 11:01:05;;;;;;;;;22.50;19.25;26.00;99.90;;;;;;5058357;28;8776;-71
2022/01/16 11:03:40;;;;;;;;;60.25;48.50;26.10;99.90;;;;;;5059518;28;8839;-70
2022/01/16 11:06:06;;;;;;;;;57.25;44.75;25.90;99.90;;;;;;5058055;28;8781;-68
2022/01/16 11:52:12;;;;;;;;;27.00;25.00;21.50;99.90;;;;;;5034894;27;2230051;-71
2022/01/16 11:54:45;;;;;;;;;44.75;35.25;21.70;99.90;;;;;;5095523;28;10189;-71
2022/01/16 11:57:18;;;;;;;;;62.75;45.25;21.80;99.90;;;;;;5093836;28;8750;-72
2022/01/16 11:59:45;;;;;;;;;57.75;43.75;22.20;99.90;;;;;;5094175;28;9824;-71
2022/01/16 12:02:12;;;;;;;;;43.00;35.00;22.40;99.90;;;;;;5094009;28;8754;-72
2022/01/16 12:04:44;;;;;;;;;27.00;22.75;22.40;99.90;;;;;;5094126;28;8768;-71
2022/01/16 12:07:15;;;;;;;;;29.25;24.75;22.50;99.90;;;;;;5094447;28;8776;-71
2022/01/16 12:12:11;;;;;;;;;32.75;25.50;22.50;99.90;;;;;;5093684;28;8750;-71
2022/01/16 12:14:55;;;;;;;;;34.50;25.25;22.70;99.90;;;;;;5075542;28;8773;-71
2022/01/16 12:17:42;;;;;;;;;36.00;32.25;22.80;99.90;;;;;;5093201;28;8774;-71
2022/01/16 12:20:18;;;;;;;;;37.75;33.50;22.70;99.90;;;;;;5093555;28;8722;-72
2022/01/16 12:22:48;;;;;;;;;40.50;33.00;22.60;99.90;;;;;;5075721;28;8776;-71
2022/01/16 12:25:19;;;;;;;;;43.00;34.75;22.60;99.90;;;;;;5094261;28;8730;-72
2022/01/16 12:28:03;;;;;;;;;33.00;32.00;22.60;99.90;;;;;;5093559;28;8803;-72
2022/01/16 12:30:39;;;;;;;;;41.25;34.00;22.80;99.90;;;;;;5093121;28;8753;-72
2022/01/16 12:33:10;;;;;;;;;32.25;31.75;22.90;99.90;;;;;;5093502;28;8710;-72
2022/01/16 12:35:39;;;;;;;;;40.75;36.25;22.70;99.90;;;;;;5093064;28;8762;-72
2022/01/16 12:38:17;;;;;;;;;31.25;27.00;22.80;99.90;;;;;;5093467;28;8750;-71
2022/01/16 12:40:46;;;;;;;;;41.50;34.75;22.90;99.90;;;;;;5093375;28;8722;-72
2022/01/16 12:43:20;;;;;;;;;40.25;34.25;22.70;99.90;;;;;;5094171;28;8714;-72
2022/01/16 12:45:47;;;;;;;;;42.25;35.50;22.90;99.90;;;;;;5050686;28;8750;-72
2022/01/16 12:48:15;;;;;;;;;39.25;34.00;22.90;99.90;;;;;;5075178;28;8761;-72
2022/01/16 12:50:42;;;;;;;;;43.25;36.25;22.90;99.90;;;;;;5092372;28;8778;-72
2022/01/16 12:53:09;;;;;;;;;38.25;34.00;22.90;99.90;;;;;;5092626;28;8742;-71
2022/01/16 12:55:36;;;;;;;;;50.25;39.75;22.90;99.90;;;;;;5092543;28;9640;-72
2022/01/16 12:58:22;;;;;;;;;52.25;42.00;22.90;99.90;;;;;;5093565;28;8741;-72
2022/01/16 13:01:04;;;;;;;;;40.50;33.75;22.80;99.90;;;;;;5075230;28;8756;-72
2022/01/16 13:03:32;;;;;;;;;40.75;36.75;22.90;99.90;;;;;;5061192;28;8731;-72
2022/01/16 13:06:17;;;;;;;;;33.75;31.00;23.00;99.90;;;;;;5079531;28;8730;-72
2022/01/16 13:09:10;;;;;;;;;50.75;39.75;23.10;99.90;;;;;;5079395;28;8784;-72
2022/01/16 13:11:41;;;;;;;;;53.00;42.50;23.10;99.90;;;;;;5075825;28;8907;-71
2022/01/16 13:14:11;;;;;;;;;52.75;40.00;23.00;99.90;;;;;;5079644;28;8762;-71
2022/01/16 13:16:43;;;;;;;;;57.00;43.25;22.90;99.90;;;;;;5078982;28;8902;-72
2022/01/16 13:19:16;;;;;;;;;50.75;39.25;22.80;99.90;;;;;;5079619;28;8727;-72
2022/01/16 13:22:03;;;;;;;;;40.50;32.75;22.90;99.90;;;;;;5078855;28;8750;-72
2022/01/16 13:24:47;;;;;;;;;52.75;40.75;23.00;99.90;;;;;;5078796;28;8746;-71
2022/01/16 13:27:24;;;;;;;;;46.75;39.00;22.90;99.90;;;;;;5079268;28;8761;-72
2022/01/16 13:29:58;;;;;;;;;49.50;40.00;22.90;99.90;;;;;;5061492;28;8746;-72
2022/01/16 13:32:33;;;;;;;;;51.00;39.50;22.80;99.90;;;;;;5078863;28;8816;-71
2022/01/16 13:35:02;;;;;;;;;40.75;36.25;22.80;99.90;;;;;;5061883;28;9500;-72
2022/01/16 13:37:36;;;;;;;;;54.00;42.75;23.00;99.90;;;;;;5078498;28;8725;-72
2022/01/16 13:40:10;;;;;;;;;50.50;41.25;23.00;99.90;;;;;;5062933;28;8772;-72
2022/01/16 13:45:22;;;;;;;;;49.50;38.25;23.10;99.90;;;;;;5079211;28;8895;-72
2022/01/16 13:48:11;;;;;;;;;50.75;39.75;23.00;99.90;;;;;;5078737;28;8752;-72
2022/01/16 13:50:53;;;;;;;;;50.00;38.75;22.90;99.90;;;;;;5078213;28;8844;-72
2022/01/16 13:53:24;;;;;;;;;53.50;42.25;22.80;99.90;;;;;;5060719;28;8768;-71
2022/01/16 13:56:00;;;;;;;;;51.00;42.75;22.90;99.90;;;;;;5078599;28;8749;-71
2022/01/16 13:58:48;;;;;;;;;58.50;44.75;22.90;99.90;;;;;;5061355;28;8834;-71
2022/01/16 14:01:17;;;;;;;;;52.50;42.75;22.90;99.90;;;;;;5079269;28;8775;-72
2022/01/16 14:03:48;;;;;;;;;50.50;40.50;22.90;99.90;;;;;;5078306;28;8845;-72
2022/01/16 14:06:17;;;;;;;;;48.00;37.75;23.10;99.90;;;;;;5060192;28;8758;-72
2022/01/16 14:08:54;;;;;;;;;41.00;34.50;23.10;99.90;;;;;;5060239;28;8774;-72
2022/01/16 14:11:24;;;;;;;;;41.25;31.00;22.90;99.90;;;;;;5077869;28;8788;-71
2022/01/16 14:14:01;;;;;;;;;39.00;33.75;22.80;99.90;;;;;;5077351;28;8787;-72
2022/01/16 14:16:47;;;;;;;;;39.25;35.50;22.70;99.90;;;;;;5077807;28;8873;-71
2022/01/16 14:19:19;;;;;;;;;31.25;29.75;22.90;99.90;;;;;;5058674;28;8745;-72
2022/01/16 14:22:02;;;;;;;;;41.00;34.50;22.80;99.90;;;;;;5060139;28;8774;-72
2022/01/16 14:24:32;;;;;;;;;37.25;33.25;22.70;99.90;;;;;;5077542;28;8765;-72